sensor_id;sensor_type;location;lat;lon;timestamp;pressure;altitude;pressure_sealevel;temperature;humidity
75747;BME280;70632;52.232;21.038;2023-11-19T00:00:50;100919.69;;;0.29;83.46
75747;BME280;70632;52.232;21.038;2023-11-19T00:03:36;100914.38;;;0.28;83.25
75747;BME280;70632;52.232;21.038;2023-11-19T00:06:02;100913.47;;;0.29;83.38
75747;BME280;70632;52.232;21.038;2023-11-19T00:08:29;100906.38;;;0.28;83.24
75747;BME280;70632;52.232;21.038;2023-11-19T00:10:55;100907.31;;;0.27;83.20
75747;BME280;70632;52.232;21.038;2023-11-19T00:13:21;100911.72;;;0.28;83.44
75747;BME280;70632;52.232;21.038;2023-11-19T00:15:48;100913.47;;;0.29;83.52
75747;BME280;70632;52.232;21.038;2023-11-19T00:18:14;100908.06;;;0.30;83.64
75747;BME280;70632;52.232;21.038;2023-11-19T00:20:40;100908.81;;;0.35;83.36
75747;BME280;70632;52.232;21.038;2023-11-19T00:23:06;100904.34;;;0.36;83.32
75747;BME280;70632;52.232;21.038;2023-11-19T00:25:32;100905.94;;;0.43;82.91
75747;BME280;70632;52.232;21.038;2023-11-19T00:27:57;100899.63;;;0.46;82.43
75747;BME280;70632;52.232;21.038;2023-11-19T00:30:23;100901.53;;;0.40;82.46
75747;BME280;70632;52.232;21.038;2023-11-19T00:32:49;100894.63;;;0.35;83.16
75747;BME280;70632;52.232;21.038;2023-11-19T00:35:16;100899.13;;;0.33;82.50
75747;BME280;70632;52.232;21.038;2023-11-19T00:37:42;100892.81;;;0.35;82.99
75747;BME280;70632;52.232;21.038;2023-11-19T00:40:15;100885.50;;;0.42;83.24
75747;BME280;70632;52.232;21.038;2023-11-19T00:42:42;100874.78;;;0.44;83.16
75747;BME280;70632;52.232;21.038;2023-11-19T00:45:09;100870.44;;;0.41;82.84
75747;BME280;70632;52.232;21.038;2023-11-19T00:47:35;100866.81;;;0.42;83.13
75747;BME280;70632;52.232;21.038;2023-11-19T00:50:02;100867.81;;;0.39;83.15
75747;BME280;70632;52.232;21.038;2023-11-19T00:52:28;100858.94;;;0.39;82.92
75747;BME280;70632;52.232;21.038;2023-11-19T00:54:54;100863.44;;;0.37;83.20
75747;BME280;70632;52.232;21.038;2023-11-19T00:57:20;100866.16;;;0.35;83.32
75747;BME280;70632;52.232;21.038;2023-11-19T00:59:45;100858.19;;;0.34;83.20
75747;BME280;70632;52.232;21.038;2023-11-19T01:02:13;100844.06;;;0.30;83.07
75747;BME280;70632;52.232;21.038;2023-11-19T01:04:39;100847.66;;;0.29;83.56
75747;BME280;70632;52.232;21.038;2023-11-19T01:07:05;100845.00;;;0.29;83.87
75747;BME280;70632;52.232;21.038;2023-11-19T01:09:32;100834.28;;;0.31;83.22
75747;BME280;70632;52.232;21.038;2023-11-19T01:12:03;100824.69;;;0.25;83.60
75747;BME280;70632;52.232;21.038;2023-11-19T01:14:30;100826.41;;;0.26;83.59
75747;BME280;70632;52.232;21.038;2023-11-19T01:16:55;100825.53;;;0.26;83.86
75747;BME280;70632;52.232;21.038;2023-11-19T01:19:22;100821.97;;;0.27;83.82
75747;BME280;70632;52.232;21.038;2023-11-19T01:21:48;100810.47;;;0.25;83.50
75747;BME280;70632;52.232;21.038;2023-11-19T01:24:15;100806.88;;;0.26;83.88
75747;BME280;70632;52.232;21.038;2023-11-19T01:26:41;100803.16;;;0.31;83.96
75747;BME280;70632;52.232;21.038;2023-11-19T01:29:13;100804.88;;;0.32;84.23
75747;BME280;70632;52.232;21.038;2023-11-19T01:31:43;100802.16;;;0.34;84.09
75747;BME280;70632;52.232;21.038;2023-11-19T01:34:10;100804.94;;;0.31;84.29
75747;BME280;70632;52.232;21.038;2023-11-19T01:36:37;100810.28;;;0.31;83.86
75747;BME280;70632;52.232;21.038;2023-11-19T01:39:06;100816.53;;;0.30;83.75
75747;BME280;70632;52.232;21.038;2023-11-19T01:41:35;100813.84;;;0.30;83.92
75747;BME280;70632;52.232;21.038;2023-11-19T01:44:01;100809.38;;;0.30;84.18
75747;BME280;70632;52.232;21.038;2023-11-19T01:46:27;100796.06;;;0.30;83.62
75747;BME280;70632;52.232;21.038;2023-11-19T01:48:57;100793.34;;;0.32;84.13
75747;BME280;70632;52.232;21.038;2023-11-19T01:51:23;100786.16;;;0.34;83.66
75747;BME280;70632;52.232;21.038;2023-11-19T01:53:49;100779.03;;;0.34;84.07
75747;BME280;70632;52.232;21.038;2023-11-19T01:56:18;100779.84;;;0.36;83.49
75747;BME280;70632;52.232;21.038;2023-11-19T01:58:46;100777.06;;;0.41;83.08
75747;BME280;70632;52.232;21.038;2023-11-19T02:01:14;100777.97;;;0.40;83.25
75747;BME280;70632;52.232;21.038;2023-11-19T02:03:40;100770.72;;;0.45;82.67
75747;BME280;70632;52.232;21.038;2023-11-19T02:06:06;100761.78;;;0.46;82.72
75747;BME280;70632;52.232;21.038;2023-11-19T02:08:33;100766.13;;;0.49;82.07
75747;BME280;70632;52.232;21.038;2023-11-19T02:10:59;100760.88;;;0.47;81.82
75747;BME280;70632;52.232;21.038;2023-11-19T02:13:26;100757.47;;;0.42;82.03
75747;BME280;70632;52.232;21.038;2023-11-19T02:15:52;100756.13;;;0.29;82.10
75747;BME280;70632;52.232;21.038;2023-11-19T02:18:24;100755.34;;;0.25;82.79
75747;BME280;70632;52.232;21.038;2023-11-19T02:20:54;100757.97;;;0.27;82.57
75747;BME280;70632;52.232;21.038;2023-11-19T02:23:20;100744.63;;;0.27;83.17
75747;BME280;70632;52.232;21.038;2023-11-19T02:26:09;100747.22;;;0.28;83.31
75747;BME280;70632;52.232;21.038;2023-11-19T02:28:39;100744.63;;;0.27;82.99
75747;BME280;70632;52.232;21.038;2023-11-19T02:31:07;100745.56;;;0.24;83.40
75747;BME280;70632;52.232;21.038;2023-11-19T02:33:37;100745.53;;;0.26;83.29
75747;BME280;70632;52.232;21.038;2023-11-19T02:36:06;100747.19;;;0.30;82.83
75747;BME280;70632;52.232;21.038;2023-11-19T02:38:34;100731.91;;;0.35;82.35
75747;BME280;70632;52.232;21.038;2023-11-19T02:41:02;100728.50;;;0.30;83.20
75747;BME280;70632;52.232;21.038;2023-11-19T02:43:28;100726.78;;;0.29;82.98
75747;BME280;70632;52.232;21.038;2023-11-19T02:45:57;100728.50;;;0.30;83.87
75747;BME280;70632;52.232;21.038;2023-11-19T02:48:23;100722.31;;;0.29;83.34
75747;BME280;70632;52.232;21.038;2023-11-19T02:50:48;100713.66;;;0.23;83.20
75747;BME280;70632;52.232;21.038;2023-11-19T02:53:14;100710.88;;;0.26;83.70
75747;BME280;70632;52.232;21.038;2023-11-19T02:55:42;100716.16;;;0.27;83.43
75747;BME280;70632;52.232;21.038;2023-11-19T02:58:17;100695.81;;;0.25;83.06
75747;BME280;70632;52.232;21.038;2023-11-19T03:00:49;100701.97;;;0.27;83.11
75747;BME280;70632;52.232;21.038;2023-11-19T03:03:20;100690.34;;;0.28;83.31
75747;BME280;70632;52.232;21.038;2023-11-19T03:05:48;100679.53;;;0.32;83.31
75747;BME280;70632;52.232;21.038;2023-11-19T03:08:15;100680.50;;;0.30;82.80
75747;BME280;70632;52.232;21.038;2023-11-19T03:10:41;100666.50;;;0.23;83.14
75747;BME280;70632;52.232;21.038;2023-11-19T03:13:11;100679.84;;;0.23;83.87
75747;BME280;70632;52.232;21.038;2023-11-19T03:15:38;100674.31;;;0.29;84.04
75747;BME280;70632;52.232;21.038;2023-11-19T03:18:04;100668.78;;;0.35;83.92
75747;BME280;70632;52.232;21.038;2023-11-19T03:20:29;100670.50;;;0.36;83.46
75747;BME280;70632;52.232;21.038;2023-11-19T03:22:56;100664.22;;;0.39;83.41
75747;BME280;70632;52.232;21.038;2023-11-19T03:25:25;100653.47;;;0.40;83.54
75747;BME280;70632;52.232;21.038;2023-11-19T03:27:52;100644.50;;;0.43;82.72
75747;BME280;70632;52.232;21.038;2023-11-19T03:30:18;100644.50;;;0.43;82.65
75747;BME280;70632;52.232;21.038;2023-11-19T03:32:46;100640.13;;;0.40;83.38
75747;BME280;70632;52.232;21.038;2023-11-19T03:35:12;100639.88;;;0.48;83.39
75747;BME280;70632;52.232;21.038;2023-11-19T03:37:38;100635.34;;;0.50;82.47
75747;BME280;70632;52.232;21.038;2023-11-19T03:40:05;100641.69;;;0.48;83.15
75747;BME280;70632;52.232;21.038;2023-11-19T03:42:31;100640.03;;;0.44;82.94
75747;BME280;70632;52.232;21.038;2023-11-19T03:44:57;100632.25;;;0.37;83.08
75747;BME280;70632;52.232;21.038;2023-11-19T03:47:23;100630.78;;;0.29;83.57
75747;BME280;70632;52.232;21.038;2023-11-19T03:49:49;100637.06;;;0.26;83.43
75747;BME280;70632;52.232;21.038;2023-11-19T03:52:17;100637.19;;;0.23;83.82
75747;BME280;70632;52.232;21.038;2023-11-19T03:54:43;100629.34;;;0.18;84.63
75747;BME280;70632;52.232;21.038;2023-11-19T03:57:09;100618.56;;;0.22;84.69
75747;BME280;70632;52.232;21.038;2023-11-19T03:59:38;100607.69;;;0.28;84.76
75747;BME280;70632;52.232;21.038;2023-11-19T04:02:04;100603.97;;;0.32;84.45
75747;BME280;70632;52.232;21.038;2023-11-19T04:04:29;100601.31;;;0.32;84.22
75747;BME280;70632;52.232;21.038;2023-11-19T04:06:56;100600.19;;;0.39;83.69
75747;BME280;70632;52.232;21.038;2023-11-19T04:09:22;100602.88;;;0.39;83.69
75747;BME280;70632;52.232;21.038;2023-11-19T04:11:48;100598.44;;;0.38;84.03
75747;BME280;70632;52.232;21.038;2023-11-19T04:14:14;100589.41;;;0.42;83.97
75747;BME280;70632;52.232;21.038;2023-11-19T04:16:41;100581.34;;;0.44;83.96
75747;BME280;70632;52.232;21.038;2023-11-19T04:19:06;100580.38;;;0.46;83.76
75747;BME280;70632;52.232;21.038;2023-11-19T04:21:33;100575.97;;;0.45;83.11
75747;BME280;70632;52.232;21.038;2023-11-19T04:23:58;100578.66;;;0.45;83.75
75747;BME280;70632;52.232;21.038;2023-11-19T04:26:24;100563.59;;;0.43;84.48
75747;BME280;70632;52.232;21.038;2023-11-19T04:28:50;100561.81;;;0.43;83.78
75747;BME280;70632;52.232;21.038;2023-11-19T04:31:16;100555.38;;;0.49;83.80
75747;BME280;70632;52.232;21.038;2023-11-19T04:33:42;100559.16;;;0.43;83.89
75747;BME280;70632;52.232;21.038;2023-11-19T04:36:09;100544.56;;;0.53;83.05
75747;BME280;70632;52.232;21.038;2023-11-19T04:38:35;100541.38;;;0.42;83.61
75747;BME280;70632;52.232;21.038;2023-11-19T04:41:01;100546.63;;;0.45;83.98
75747;BME280;70632;52.232;21.038;2023-11-19T04:43:27;100541.16;;;0.48;83.58
75747;BME280;70632;52.232;21.038;2023-11-19T04:45:53;100537.81;;;0.43;82.94
75747;BME280;70632;52.232;21.038;2023-11-19T04:48:19;100535.28;;;0.38;82.83
75747;BME280;70632;52.232;21.038;2023-11-19T04:50:45;100534.56;;;0.35;83.74
75747;BME280;70632;52.232;21.038;2023-11-19T04:53:11;100539.28;;;0.27;83.48
75747;BME280;70632;52.232;21.038;2023-11-19T04:55:37;100535.81;;;0.25;83.81
75747;BME280;70632;52.232;21.038;2023-11-19T04:58:03;100529.56;;;0.24;83.78
75747;BME280;70632;52.232;21.038;2023-11-19T05:00:29;100518.84;;;0.26;83.92
75747;BME280;70632;52.232;21.038;2023-11-19T05:02:55;100526.09;;;0.22;84.19
75747;BME280;70632;52.232;21.038;2023-11-19T05:05:21;100526.00;;;0.25;84.22
75747;BME280;70632;52.232;21.038;2023-11-19T05:07:46;100522.56;;;0.22;84.00
75747;BME280;70632;52.232;21.038;2023-11-19T05:10:12;100516.44;;;0.18;84.27
75747;BME280;70632;52.232;21.038;2023-11-19T05:12:38;100506.91;;;0.12;83.96
75747;BME280;70632;52.232;21.038;2023-11-19T05:15:05;100505.19;;;0.10;84.57
75747;BME280;70632;52.232;21.038;2023-11-19T05:17:30;100494.25;;;0.17;84.03
75747;BME280;70632;52.232;21.038;2023-11-19T05:19:57;100491.94;;;0.08;84.00
75747;BME280;70632;52.232;21.038;2023-11-19T05:22:22;100503.41;;;0.10;84.67
75747;BME280;70632;52.232;21.038;2023-11-19T05:24:48;100497.47;;;0.02;84.98
75747;BME280;70632;52.232;21.038;2023-11-19T05:27:14;100491.00;;;0.09;85.09
75747;BME280;70632;52.232;21.038;2023-11-19T05:29:40;100485.66;;;0.09;84.72
75747;BME280;70632;52.232;21.038;2023-11-19T05:32:07;100490.91;;;0.12;84.30
75747;BME280;70632;52.232;21.038;2023-11-19T05:34:33;100487.34;;;0.12;83.93
75747;BME280;70632;52.232;21.038;2023-11-19T05:36:58;100487.28;;;0.13;83.58
75747;BME280;70632;52.232;21.038;2023-11-19T05:39:24;100491.00;;;0.09;83.75
75747;BME280;70632;52.232;21.038;2023-11-19T05:41:50;100490.81;;;0.14;84.03
75747;BME280;70632;52.232;21.038;2023-11-19T05:44:17;100484.81;;;0.09;83.97
75747;BME280;70632;52.232;21.038;2023-11-19T05:46:42;100489.91;;;0.15;84.53
75747;BME280;70632;52.232;21.038;2023-11-19T05:49:10;100477.88;;;0.03;84.85
75747;BME280;70632;52.232;21.038;2023-11-19T05:51:39;100479.22;;;0.16;83.71
75747;BME280;70632;52.232;21.038;2023-11-19T05:54:07;100477.56;;;0.12;82.91
75747;BME280;70632;52.232;21.038;2023-11-19T05:56:33;100480.25;;;0.12;83.81
75747;BME280;70632;52.232;21.038;2023-11-19T05:59:00;100476.84;;;0.07;82.84
75747;BME280;70632;52.232;21.038;2023-11-19T06:01:26;100479.47;;;0.09;82.67
75747;BME280;70632;52.232;21.038;2023-11-19T06:03:52;100480.25;;;0.12;83.80
75747;BME280;70632;52.232;21.038;2023-11-19T06:06:18;100480.28;;;0.11;83.90
75747;BME280;70632;52.232;21.038;2023-11-19T06:08:44;100482.56;;;0.22;84.01
75747;BME280;70632;52.232;21.038;2023-11-19T06:11:10;100484.78;;;0.34;82.94
75747;BME280;70632;52.232;21.038;2023-11-19T06:13:40;100474.25;;;0.31;82.63
75747;BME280;70632;52.232;21.038;2023-11-19T06:16:06;100476.31;;;0.23;82.71
75747;BME280;70632;52.232;21.038;2023-11-19T06:18:32;100483.38;;;0.24;80.93
75747;BME280;70632;52.232;21.038;2023-11-19T06:20:58;100475.34;;;0.25;82.01
75747;BME280;70632;52.232;21.038;2023-11-19T06:23:24;100473.75;;;0.19;81.93
75747;BME280;70632;52.232;21.038;2023-11-19T06:25:49;100466.47;;;0.25;80.89
75747;BME280;70632;52.232;21.038;2023-11-19T06:28:15;100467.91;;;0.33;81.44
75747;BME280;70632;52.232;21.038;2023-11-19T06:30:41;100462.47;;;0.36;81.01
75747;BME280;70632;52.232;21.038;2023-11-19T06:33:07;100463.66;;;0.28;81.31
75747;BME280;70632;52.232;21.038;2023-11-19T06:35:33;100446.84;;;0.26;81.84
75747;BME280;70632;52.232;21.038;2023-11-19T06:38:02;100451.78;;;0.36;81.56
75747;BME280;70632;52.232;21.038;2023-11-19T06:40:30;100452.31;;;0.46;80.80
75747;BME280;70632;52.232;21.038;2023-11-19T06:42:56;100445.38;;;0.42;81.60
75747;BME280;70632;52.232;21.038;2023-11-19T06:45:22;100440.84;;;0.44;80.55
75747;BME280;70632;52.232;21.038;2023-11-19T06:47:48;100439.81;;;0.48;80.88
75747;BME280;70632;52.232;21.038;2023-11-19T06:50:14;100416.97;;;0.41;81.80
75747;BME280;70632;52.232;21.038;2023-11-19T06:52:40;100419.63;;;0.41;80.77
75747;BME280;70632;52.232;21.038;2023-11-19T06:55:06;100417.78;;;0.43;80.22
75747;BME280;70632;52.232;21.038;2023-11-19T06:57:32;100406.53;;;0.35;80.21
75747;BME280;70632;52.232;21.038;2023-11-19T07:00:01;100409.34;;;0.30;80.66
75747;BME280;70632;52.232;21.038;2023-11-19T07:02:27;100400.94;;;0.17;81.08
75747;BME280;70632;52.232;21.038;2023-11-19T07:04:53;100406.28;;;0.17;81.16
75747;BME280;70632;52.232;21.038;2023-11-19T07:07:19;100405.69;;;0.09;81.51
75747;BME280;70632;52.232;21.038;2023-11-19T07:09:45;100413.69;;;0.09;81.31
75747;BME280;70632;52.232;21.038;2023-11-19T07:12:11;100406.84;;;0.02;80.95
75747;BME280;70632;52.232;21.038;2023-11-19T07:14:38;100386.94;;;0.12;81.05
75747;BME280;70632;52.232;21.038;2023-11-19T07:17:04;100391.09;;;0.19;81.19
75747;BME280;70632;52.232;21.038;2023-11-19T07:19:29;100395.84;;;0.11;81.05
75747;BME280;70632;52.232;21.038;2023-11-19T07:21:55;100394.03;;;0.12;81.64
75747;BME280;70632;52.232;21.038;2023-11-19T07:24:21;100384.34;;;0.09;81.09
75747;BME280;70632;52.232;21.038;2023-11-19T07:26:48;100387.06;;;0.08;81.57
75747;BME280;70632;52.232;21.038;2023-11-19T07:29:14;100376.09;;;0.17;81.61
75747;BME280;70632;52.232;21.038;2023-11-19T07:31:45;100383.03;;;0.21;81.19
75747;BME280;70632;52.232;21.038;2023-11-19T07:34:10;100392.94;;;0.17;80.08
75747;BME280;70632;52.232;21.038;2023-11-19T07:36:37;100384.25;;;0.12;80.64
75747;BME280;70632;52.232;21.038;2023-11-19T07:39:04;100394.78;;;0.15;80.66
75747;BME280;70632;52.232;21.038;2023-11-19T07:41:34;100380.78;;;0.10;79.59
75747;BME280;70632;52.232;21.038;2023-11-19T07:44:00;100385.16;;;0.11;79.65
75747;BME280;70632;52.232;21.038;2023-11-19T07:46:26;100373.28;;;-0.04;79.39
75747;BME280;70632;52.232;21.038;2023-11-19T07:48:52;100372.66;;;-0.10;79.41
75747;BME280;70632;52.232;21.038;2023-11-19T07:51:18;100371.06;;;-0.16;80.07
75747;BME280;70632;52.232;21.038;2023-11-19T07:53:44;100364.47;;;-0.06;80.47
75747;BME280;70632;52.232;21.038;2023-11-19T07:56:10;100358.19;;;-0.05;80.48
75747;BME280;70632;52.232;21.038;2023-11-19T07:58:36;100356.44;;;-0.04;81.35
75747;BME280;70632;52.232;21.038;2023-11-19T08:01:02;100339.97;;;0.08;80.91
75747;BME280;70632;52.232;21.038;2023-11-19T08:03:28;100329.59;;;0.01;80.71
75747;BME280;70632;52.232;21.038;2023-11-19T08:05:55;100328.38;;;0.09;81.13
75747;BME280;70632;52.232;21.038;2023-11-19T08:08:24;100333.03;;;0.04;81.48
75747;BME280;70632;52.232;21.038;2023-11-19T08:10:50;100330.84;;;0.14;81.05
75747;BME280;70632;52.232;21.038;2023-11-19T08:13:19;100329.81;;;0.18;81.51
75747;BME280;70632;52.232;21.038;2023-11-19T08:15:45;100333.94;;;0.03;80.91
75747;BME280;70632;52.232;21.038;2023-11-19T08:18:12;100318.16;;;-0.03;81.46
75747;BME280;70632;52.232;21.038;2023-11-19T08:20:39;100311.81;;;0.01;82.38
75747;BME280;70632;52.232;21.038;2023-11-19T08:23:05;100314.88;;;0.14;82.57
75747;BME280;70632;52.232;21.038;2023-11-19T08:25:30;100311.22;;;0.16;81.99
75747;BME280;70632;52.232;21.038;2023-11-19T08:27:56;100312.72;;;0.24;81.47
75747;BME280;70632;52.232;21.038;2023-11-19T08:30:22;100301.00;;;0.28;81.25
75747;BME280;70632;52.232;21.038;2023-11-19T08:32:50;100298.03;;;0.35;81.64
75747;BME280;70632;52.232;21.038;2023-11-19T08:35:16;100287.44;;;0.34;81.26
75747;BME280;70632;52.232;21.038;2023-11-19T08:37:41;100282.00;;;0.37;81.38
75747;BME280;70632;52.232;21.038;2023-11-19T08:40:08;100286.28;;;0.41;81.91
75747;BME280;70632;52.232;21.038;2023-11-19T08:42:34;100281.19;;;0.35;81.63
75747;BME280;70632;52.232;21.038;2023-11-19T08:45:00;100276.22;;;0.48;81.69
75747;BME280;70632;52.232;21.038;2023-11-19T08:47:26;100273.41;;;0.51;81.37
75747;BME280;70632;52.232;21.038;2023-11-19T08:49:52;100287.75;;;0.48;82.36
75747;BME280;70632;52.232;21.038;2023-11-19T08:52:18;100278.59;;;0.55;82.00
75747;BME280;70632;52.232;21.038;2023-11-19T08:54:44;100279.44;;;0.56;80.40
75747;BME280;70632;52.232;21.038;2023-11-19T08:57:09;100279.66;;;0.51;80.40
75747;BME280;70632;52.232;21.038;2023-11-19T08:59:36;100279.44;;;0.56;81.17
75747;BME280;70632;52.232;21.038;2023-11-19T09:02:06;100271.94;;;0.44;81.22
75747;BME280;70632;52.232;21.038;2023-11-19T09:04:33;100269.63;;;0.56;81.08
75747;BME280;70632;52.232;21.038;2023-11-19T09:06:59;100268.84;;;0.54;81.55
75747;BME280;70632;52.232;21.038;2023-11-19T09:09:25;100255.03;;;0.65;80.54
75747;BME280;70632;52.232;21.038;2023-11-19T09:11:51;100251.72;;;0.60;80.77
75747;BME280;70632;52.232;21.038;2023-11-19T09:14:17;100238.31;;;0.62;81.11
75747;BME280;70632;52.232;21.038;2023-11-19T09:16:43;100235.94;;;0.76;81.36
75747;BME280;70632;52.232;21.038;2023-11-19T09:19:09;100239.97;;;0.86;80.67
75747;BME280;70632;52.232;21.038;2023-11-19T09:21:35;100236.47;;;0.84;80.96
75747;BME280;70632;52.232;21.038;2023-11-19T09:24:04;100230.53;;;0.98;79.50
75747;BME280;70632;52.232;21.038;2023-11-19T09:26:30;100223.00;;;0.87;80.03
75747;BME280;70632;52.232;21.038;2023-11-19T09:28:57;100228.47;;;0.84;80.53
75747;BME280;70632;52.232;21.038;2023-11-19T09:31:25;100213.59;;;0.99;79.56
75747;BME280;70632;52.232;21.038;2023-11-19T09:33:51;100205.91;;;0.91;79.49
75747;BME280;70632;52.232;21.038;2023-11-19T09:36:17;100213.31;;;0.85;80.01
75747;BME280;70632;52.232;21.038;2023-11-19T09:38:43;100202.72;;;0.83;80.21
75747;BME280;70632;52.232;21.038;2023-11-19T09:41:10;100210.78;;;0.82;80.20
75747;BME280;70632;52.232;21.038;2023-11-19T09:43:39;100192.28;;;0.77;79.83
75747;BME280;70632;52.232;21.038;2023-11-19T09:46:06;100192.03;;;0.83;80.56
75747;BME280;70632;52.232;21.038;2023-11-19T09:48:33;100194.97;;;0.77;80.20
75747;BME280;70632;52.232;21.038;2023-11-19T09:51:01;100196.19;;;0.70;80.24
75747;BME280;70632;52.232;21.038;2023-11-19T09:53:28;100195.88;;;0.55;81.12
75747;BME280;70632;52.232;21.038;2023-11-19T09:55:55;100179.63;;;0.62;81.25
75747;BME280;70632;52.232;21.038;2023-11-19T09:58:21;100190.41;;;0.58;80.99
75747;BME280;70632;52.232;21.038;2023-11-19T10:00:48;100181.00;;;0.50;81.41
75747;BME280;70632;52.232;21.038;2023-11-19T10:03:14;100169.00;;;0.60;81.42
75747;BME280;70632;52.232;21.038;2023-11-19T10:05:40;100166.13;;;0.65;81.01
75747;BME280;70632;52.232;21.038;2023-11-19T10:08:06;100168.06;;;0.61;81.25
75747;BME280;70632;52.232;21.038;2023-11-19T10:10:35;100162.53;;;0.45;81.30
75747;BME280;70632;52.232;21.038;2023-11-19T10:13:01;100163.50;;;0.43;82.27
75747;BME280;70632;52.232;21.038;2023-11-19T10:15:27;100164.00;;;0.52;82.05
75747;BME280;70632;52.232;21.038;2023-11-19T10:17:57;100155.97;;;0.52;81.96
75747;BME280;70632;52.232;21.038;2023-11-19T10:20:22;100150.66;;;0.52;81.99
75747;BME280;70632;52.232;21.038;2023-11-19T10:22:52;100130.97;;;0.55;81.99
75747;BME280;70632;52.232;21.038;2023-11-19T10:25:25;100131.66;;;0.60;81.33
75747;BME280;70632;52.232;21.038;2023-11-19T10:27:52;100118.69;;;0.51;82.58
75747;BME280;70632;52.232;21.038;2023-11-19T10:30:20;100131.97;;;0.52;82.91
75747;BME280;70632;52.232;21.038;2023-11-19T10:33:03;100133.59;;;0.56;82.77
75747;BME280;70632;52.232;21.038;2023-11-19T10:35:29;100133.72;;;0.53;82.67
75747;BME280;70632;52.232;21.038;2023-11-19T10:37:55;100135.44;;;0.54;82.48
75747;BME280;70632;52.232;21.038;2023-11-19T10:40:20;100125.47;;;0.59;81.98
75747;BME280;70632;52.232;21.038;2023-11-19T10:42:47;100101.56;;;0.56;81.82
75747;BME280;70632;52.232;21.038;2023-11-19T10:45:22;100092.38;;;0.64;81.63
75747;BME280;70632;52.232;21.038;2023-11-19T10:47:51;100092.66;;;0.57;82.17
75747;BME280;70632;52.232;21.038;2023-11-19T10:50:17;100107.31;;;0.68;82.24
75747;BME280;70632;52.232;21.038;2023-11-19T10:52:52;100109.25;;;0.64;81.86
75747;BME280;70632;52.232;21.038;2023-11-19T10:55:26;100091.97;;;0.52;82.88
75747;BME280;70632;52.232;21.038;2023-11-19T10:57:59;100085.56;;;0.56;83.09
75747;BME280;70632;52.232;21.038;2023-11-19T11:00:26;100079.63;;;0.50;83.13
75747;BME280;70632;52.232;21.038;2023-11-19T11:02:58;100058.66;;;0.61;82.14
75747;BME280;70632;52.232;21.038;2023-11-19T11:05:26;100047.81;;;0.66;82.31
75747;BME280;70632;52.232;21.038;2023-11-19T11:07:55;100052.34;;;0.64;82.40
75747;BME280;70632;52.232;21.038;2023-11-19T11:10:23;100045.28;;;0.63;82.33
75747;BME280;70632;52.232;21.038;2023-11-19T11:12:52;100042.59;;;0.63;81.79
75747;BME280;70632;52.232;21.038;2023-11-19T11:15:26;100031.94;;;0.63;82.43
75747;BME280;70632;52.232;21.038;2023-11-19T11:17:59;100025.00;;;0.58;82.07
75747;BME280;70632;52.232;21.038;2023-11-19T11:20:29;100019.53;;;0.62;82.71
75747;BME280;70632;52.232;21.038;2023-11-19T11:28:48;99993.06;;;0.57;82.78
75747;BME280;70632;52.232;21.038;2023-11-19T11:39:43;100003.28;;;0.47;83.11
75747;BME280;70632;52.232;21.038;2023-11-19T11:50:18;99977.19;;;0.54;83.03
75747;BME280;70632;52.232;21.038;2023-11-19T11:55:55;99966.03;;;0.65;82.58
75747;BME280;70632;52.232;21.038;2023-11-19T11:58:41;99954.63;;;0.61;82.92
75747;BME280;70632;52.232;21.038;2023-11-19T12:01:08;99957.00;;;0.67;82.50
75747;BME280;70632;52.232;21.038;2023-11-19T12:03:35;99945.91;;;0.57;82.41
75747;BME280;70632;52.232;21.038;2023-11-19T12:06:03;99957.38;;;0.59;82.82
75747;BME280;70632;52.232;21.038;2023-11-19T12:08:29;99938.72;;;0.59;82.99
75747;BME280;70632;52.232;21.038;2023-11-19T12:10:57;99915.50;;;0.62;83.05
75747;BME280;70632;52.232;21.038;2023-11-19T12:13:23;99926.91;;;0.45;83.58
75747;BME280;70632;52.232;21.038;2023-11-19T12:18:26;99909.66;;;0.53;83.46
75747;BME280;70632;52.232;21.038;2023-11-19T12:20:52;99908.63;;;0.56;82.72
75747;BME280;70632;52.232;21.038;2023-11-19T12:23:18;99884.41;;;0.60;83.04
75747;BME280;70632;52.232;21.038;2023-11-19T12:25:44;99924.34;;;0.62;82.98
75747;BME280;70632;52.232;21.038;2023-11-19T12:28:15;99882.59;;;0.61;82.98
75747;BME280;70632;52.232;21.038;2023-11-19T12:30:45;99883.03;;;0.71;82.46
75747;BME280;70632;52.232;21.038;2023-11-19T12:33:14;99880.53;;;0.68;82.57
75747;BME280;70632;52.232;21.038;2023-11-19T12:35:41;99884.34;;;0.62;83.09
75747;BME280;70632;52.232;21.038;2023-11-19T12:38:07;99880.59;;;0.66;82.56
75747;BME280;70632;52.232;21.038;2023-11-19T12:40:33;99878.44;;;0.74;81.88
75747;BME280;70632;52.232;21.038;2023-11-19T12:43:02;99881.81;;;0.59;82.15
75747;BME280;70632;52.232;21.038;2023-11-19T12:45:37;99869.47;;;0.56;82.36
75747;BME280;70632;52.232;21.038;2023-11-19T12:48:05;99884.13;;;0.48;82.76
75747;BME280;70632;52.232;21.038;2023-11-19T12:50:50;99863.69;;;0.47;83.37
75747;BME280;70632;52.232;21.038;2023-11-19T12:53:16;99879.81;;;0.45;83.10
75747;BME280;70632;52.232;21.038;2023-11-19T12:55:42;99884.41;;;0.60;82.68
75747;BME280;70632;52.232;21.038;2023-11-19T12:58:07;99877.84;;;0.49;82.75
75747;BME280;70632;52.232;21.038;2023-11-19T13:00:33;99880.78;;;0.43;83.16
75747;BME280;70632;52.232;21.038;2023-11-19T13:02:59;99870.50;;;0.54;82.63
75747;BME280;70632;52.232;21.038;2023-11-19T13:05:32;99869.66;;;0.53;83.60
75747;BME280;70632;52.232;21.038;2023-11-19T13:08:05;99868.69;;;0.54;83.36
75747;BME280;70632;52.232;21.038;2023-11-19T13:10:32;99864.16;;;0.56;83.70
75747;BME280;70632;52.232;21.038;2023-11-19T13:13:08;99861.63;;;0.53;83.45
75747;BME280;70632;52.232;21.038;2023-11-19T13:15:35;99867.59;;;0.58;84.31
75747;BME280;70632;52.232;21.038;2023-11-19T13:18:01;99854.34;;;0.57;85.72